createdAt,value
2022-08-25T00:01:24.713Z,3.50
2022-08-25T00:03:55.157Z,3.47
2022-08-25T00:06:23.717Z,3.43
2022-08-25T00:08:50.966Z,4.00
2022-08-25T00:11:21.250Z,3.63
2022-08-25T00:13:54.365Z,3.87
2022-08-25T00:16:23.251Z,4.00
2022-08-25T00:18:53.033Z,3.70
2022-08-25T00:21:20.160Z,3.50
2022-08-25T00:23:46.723Z,3.83
2022-08-25T00:26:14.427Z,3.50
2022-08-25T00:28:41.495Z,4.20
2022-08-25T00:31:15.263Z,3.60
2022-08-25T00:33:43.885Z,3.90
2022-08-25T00:36:12.503Z,4.33
2022-08-25T00:38:43.953Z,3.90
2022-08-25T00:41:12.920Z,3.90
2022-08-25T00:43:42.489Z,3.93
2022-08-25T00:46:10.119Z,3.90
2022-08-25T00:48:39.466Z,3.90
2022-08-25T00:51:08.225Z,4.03
2022-08-25T00:53:34.741Z,3.63
2022-08-25T00:56:01.858Z,4.00
2022-08-25T00:58:31.201Z,3.87
2022-08-25T01:00:58.490Z,3.77
2022-08-25T01:03:33.004Z,4.27
2022-08-25T01:06:02.090Z,4.10
2022-08-25T01:08:29.866Z,4.07
2022-08-25T01:11:02.072Z,4.20
2022-08-25T01:13:42.087Z,3.90
2022-08-25T01:16:09.030Z,4.13
2022-08-25T01:18:51.896Z,3.67
2022-08-25T01:21:20.786Z,3.80
2022-08-25T01:23:48.617Z,3.60
2022-08-25T01:26:17.284Z,4.20
2022-08-25T01:29:04.530Z,4.03
2022-08-25T01:31:31.785Z,4.00
2022-08-25T01:33:59.010Z,4.43
2022-08-25T01:36:27.907Z,4.00
2022-08-25T01:38:54.990Z,4.57
2022-08-25T01:41:27.635Z,4.33
2022-08-25T01:43:54.117Z,4.40
2022-08-25T01:46:20.780Z,4.80
2022-08-25T01:48:47.924Z,4.40
2022-08-25T01:51:20.621Z,4.40
2022-08-25T01:53:47.281Z,4.00
2022-08-25T01:56:15.797Z,4.30
2022-08-25T01:58:46.130Z,4.17
2022-08-25T02:01:16.112Z,4.37
2022-08-25T02:03:44.912Z,4.47
2022-08-25T02:06:16.645Z,4.30
2022-08-25T02:08:44.177Z,3.80
2022-08-25T02:11:12.531Z,4.80
2022-08-25T02:13:40.554Z,4.47
2022-08-25T02:16:07.844Z,4.90
2022-08-25T02:18:34.396Z,5.60
2022-08-25T02:21:03.145Z,4.50
2022-08-25T02:23:30.231Z,4.97
2022-08-25T02:25:57.347Z,4.60
2022-08-25T02:28:24.399Z,4.57
2022-08-25T02:30:52.930Z,4.40
2022-08-25T02:33:25.248Z,4.73
2022-08-25T02:35:51.946Z,4.97
2022-08-25T02:38:18.438Z,4.50
2022-08-25T02:40:44.921Z,5.07
2022-08-25T02:43:11.477Z,4.63
2022-08-25T02:45:37.972Z,4.80
2022-08-25T02:48:04.768Z,4.83
2022-08-25T02:50:31.436Z,5.40
2022-08-25T02:52:57.938Z,4.80
2022-08-25T02:55:24.397Z,5.23
2022-08-25T02:57:50.954Z,5.43
2022-08-25T03:00:18.297Z,5.23
2022-08-25T03:02:45.353Z,5.50
2022-08-25T03:05:14.189Z,5.50
2022-08-25T03:07:40.839Z,5.43
2022-08-25T03:10:12.521Z,5.20
2022-08-25T03:12:41.665Z,5.73
2022-08-25T03:15:13.389Z,5.57
2022-08-25T03:17:40.275Z,5.63
2022-08-25T03:20:07.953Z,5.90
2022-08-25T03:22:34.479Z,5.30
2022-08-25T03:25:24.036Z,5.60
2022-08-25T03:27:51.945Z,5.80
2022-08-25T03:30:19.147Z,4.87
2022-08-25T03:32:45.641Z,5.83
2022-08-25T03:35:12.623Z,6.03
2022-08-25T03:37:39.839Z,5.90
2022-08-25T03:40:13.624Z,6.07
2022-08-25T03:42:45.317Z,6.70
2022-08-25T03:45:13.953Z,5.70
2022-08-25T03:47:40.854Z,6.13
2022-08-25T03:50:09.131Z,6.00
2022-08-25T03:52:40.147Z,6.90
2022-08-25T03:55:11.025Z,6.00
2022-08-25T03:57:38.221Z,7.20
2022-08-25T04:00:09.825Z,6.37
2022-08-25T04:02:36.392Z,5.83
2022-08-25T04:05:03.591Z,6.43
2022-08-25T04:07:30.441Z,6.90
2022-08-25T04:09:56.908Z,6.30
2022-08-25T04:12:23.789Z,5.63
2022-08-25T04:14:50.572Z,6.33
2022-08-25T04:17:17.676Z,6.83
2022-08-25T04:19:44.245Z,6.27
2022-08-25T04:22:11.162Z,7.00
2022-08-25T04:24:39.798Z,8.10
2022-08-25T04:27:06.284Z,6.90
2022-08-25T04:29:33.490Z,7.70
2022-08-25T04:32:00.062Z,6.87
2022-08-25T04:34:29.918Z,7.40
2022-08-25T04:37:00.426Z,9.00
2022-08-25T04:39:26.890Z,9.37
2022-08-25T04:41:53.569Z,9.53
2022-08-25T04:44:20.034Z,8.37
2022-08-25T04:46:46.569Z,8.03
2022-08-25T04:49:13.057Z,7.60
2022-08-25T04:51:41.716Z,7.43
2022-08-25T04:54:12.826Z,8.13
2022-08-25T04:56:40.798Z,8.40
2022-08-25T04:59:12.310Z,9.00
2022-08-25T05:01:39.563Z,9.07
2022-08-25T05:04:07.696Z,9.83
2022-08-25T05:06:34.370Z,10.30
2022-08-25T05:09:03.672Z,10.33
2022-08-25T05:11:32.262Z,10.23
2022-08-25T05:14:01.482Z,10.13
2022-08-25T05:16:28.242Z,11.53
2022-08-25T05:18:55.522Z,12.63
2022-08-25T05:21:25.033Z,12.23
2022-08-25T05:23:56.688Z,11.40
2022-08-25T05:26:24.106Z,11.80
2022-08-25T05:28:53.446Z,12.20
2022-08-25T05:31:22.162Z,12.27
2022-08-25T05:33:48.660Z,12.63
2022-08-25T05:36:16.184Z,12.43
2022-08-25T05:38:42.878Z,11.97
2022-08-25T05:41:12.043Z,11.43
2022-08-25T05:43:40.154Z,11.70
2022-08-25T05:46:07.510Z,11.10
2022-08-25T05:48:34.586Z,10.33
2022-08-25T05:51:02.986Z,10.03
2022-08-25T05:53:31.075Z,10.30
2022-08-25T05:56:01.428Z,8.77
2022-08-25T05:58:29.110Z,9.33
2022-08-25T06:00:56.672Z,8.33
2022-08-25T06:03:23.209Z,8.57
2022-08-25T06:05:50.186Z,8.43
2022-08-25T06:08:17.018Z,7.87
2022-08-25T06:10:43.516Z,8.10
2022-08-25T06:13:10.042Z,8.00
2022-08-25T06:15:36.674Z,7.00
2022-08-25T06:18:03.567Z,7.00
2022-08-25T06:20:31.344Z,6.20
2022-08-25T06:22:58.904Z,6.57
2022-08-25T06:25:26.824Z,6.97
2022-08-25T06:27:54.218Z,6.50
2022-08-25T06:30:24.531Z,6.27
2022-08-25T06:32:55.781Z,6.93
2022-08-25T06:35:22.762Z,6.47
2022-08-25T06:37:49.337Z,5.90
2022-08-25T06:40:16.557Z,6.03
2022-08-25T06:42:43.514Z,5.60
2022-08-25T06:45:11.253Z,5.90
2022-08-25T06:47:37.759Z,5.80
2022-08-25T06:50:05.070Z,5.50
2022-08-25T06:52:31.671Z,6.07
2022-08-25T06:54:58.170Z,5.37
2022-08-25T06:57:25.054Z,5.13
2022-08-25T06:59:53.392Z,5.40
2022-08-25T07:02:22.094Z,5.60
2022-08-25T07:04:49.530Z,5.80
2022-08-25T07:07:16.025Z,5.53
2022-08-25T07:09:43.054Z,5.90
2022-08-25T07:12:09.586Z,6.13
2022-08-25T07:14:36.877Z,5.57
2022-08-25T07:17:11.937Z,5.63
2022-08-25T07:19:39.086Z,4.63
2022-08-25T07:22:07.570Z,4.47
2022-08-25T07:24:35.989Z,4.47
2022-08-25T07:27:02.630Z,4.20
2022-08-25T07:29:32.029Z,4.63
2022-08-25T07:32:01.484Z,4.47
2022-08-25T07:34:52.214Z,4.33
2022-08-25T07:37:38.321Z,4.30
2022-08-25T07:40:08.078Z,4.73
2022-08-25T07:42:34.897Z,4.43
2022-08-25T07:45:01.874Z,3.97
2022-08-25T07:47:28.734Z,4.23
2022-08-25T07:49:55.221Z,3.93
2022-08-25T07:52:21.767Z,4.60
2022-08-25T07:54:48.244Z,4.80
2022-08-25T07:57:14.915Z,4.37
2022-08-25T07:59:42.336Z,4.57
2022-08-25T08:02:17.697Z,3.83
2022-08-25T08:04:50.742Z,4.20
2022-08-25T08:07:43.839Z,3.87
2022-08-25T08:10:42.329Z,4.40
2022-08-25T08:12:59.245Z,3.70
2022-08-25T08:15:25.902Z,4.10
2022-08-25T08:17:56.202Z,3.70
2022-08-25T08:20:24.422Z,3.97
2022-08-25T08:22:50.934Z,4.30
2022-08-25T08:25:18.871Z,4.10
2022-08-25T08:27:48.903Z,3.83
2022-08-25T08:30:16.747Z,3.93
2022-08-25T08:33:08.162Z,4.23
2022-08-25T08:35:30.074Z,3.60
2022-08-25T08:37:56.592Z,4.17
2022-08-25T08:40:23.106Z,3.87
2022-08-25T08:43:07.024Z,3.60
2022-08-25T08:45:50.708Z,3.33
2022-08-25T08:48:33.006Z,3.23
2022-08-25T08:51:11.363Z,3.00
2022-08-25T08:53:59.773Z,3.23
2022-08-25T08:56:45.412Z,2.77
2022-08-25T08:59:21.759Z,2.70
2022-08-25T09:01:54.339Z,3.10
2022-08-25T09:04:38.286Z,3.13
2022-08-25T09:07:11.753Z,2.80
2022-08-25T09:09:41.994Z,2.90
2022-08-25T09:12:11.518Z,2.60
2022-08-25T09:15:12.927Z,2.67
2022-08-25T09:17:57.857Z,2.70
2022-08-25T09:20:30.248Z,2.43
2022-08-25T09:22:56.859Z,2.80
2022-08-25T09:25:53.216Z,2.57
2022-08-25T09:28:41.095Z,2.13
2022-08-25T09:31:20.033Z,2.50
2022-08-25T09:33:46.770Z,2.40
2022-08-25T09:36:13.811Z,2.77
2022-08-25T09:38:41.288Z,2.50
2022-08-25T09:41:08.325Z,2.53
2022-08-25T09:43:36.818Z,2.67
2022-08-25T09:46:03.522Z,2.57
2022-08-25T09:48:42.382Z,2.70
2022-08-25T09:51:21.485Z,2.90
2022-08-25T09:53:55.824Z,2.90
2022-08-25T09:56:24.748Z,2.50
2022-08-25T09:58:52.688Z,2.53
2022-08-25T10:01:22.566Z,2.57
2022-08-25T10:04:00.026Z,2.10
2022-08-25T10:06:30.206Z,2.47
2022-08-25T10:09:03.973Z,2.43
2022-08-25T10:11:37.982Z,2.70
2022-08-25T10:14:14.281Z,2.87
2022-08-25T10:16:40.819Z,2.53
2022-08-25T10:19:24.173Z,2.67
2022-08-25T10:22:05.833Z,2.53
2022-08-25T10:24:32.822Z,2.80
2022-08-25T10:27:12.250Z,2.63
2022-08-25T10:30:00.678Z,2.80
2022-08-25T10:32:46.201Z,2.80
2022-08-25T10:35:14.749Z,2.70
2022-08-25T10:38:01.604Z,2.47
2022-08-25T10:40:42.230Z,2.80
2022-08-25T10:43:27.583Z,2.90
2022-08-25T10:46:03.936Z,2.50
2022-08-25T10:48:40.845Z,3.00
2022-08-25T10:51:14.598Z,2.80
2022-08-25T10:53:58.116Z,2.90
2022-08-25T10:56:41.839Z,2.80
2022-08-25T10:59:30.011Z,2.90
2022-08-25T11:02:22.749Z,2.73
2022-08-25T11:04:55.608Z,2.87
2022-08-25T11:07:49.874Z,2.80
2022-08-25T11:10:20.800Z,2.80
2022-08-25T11:12:53.760Z,2.87
2022-08-25T11:15:26.008Z,2.60
2022-08-25T11:17:59.142Z,2.60
2022-08-25T11:20:38.121Z,3.00
2022-08-25T11:23:12.060Z,2.77
2022-08-25T11:25:43.007Z,3.07
2022-08-25T11:28:49.598Z,2.60
2022-08-25T11:31:17.360Z,2.80
2022-08-25T11:33:44.215Z,2.83
2022-08-25T11:36:30.063Z,2.90
2022-08-25T11:38:59.737Z,2.53
2022-08-25T11:41:53.544Z,2.47
2022-08-25T11:44:53.385Z,2.50
2022-08-25T11:47:42.090Z,2.93
2022-08-25T11:50:30.172Z,2.83
2022-08-25T11:53:15.647Z,3.03
2022-08-25T11:55:48.740Z,3.00
2022-08-25T11:58:40.886Z,2.40
2022-08-25T12:01:35.684Z,3.07
2022-08-25T12:04:33.951Z,2.90
2022-08-25T12:07:07.379Z,2.80
2022-08-25T12:09:35.295Z,2.43
2022-08-25T12:12:28.631Z,2.50
2022-08-25T12:14:55.197Z,2.83
2022-08-25T12:17:27.525Z,3.00
2022-08-25T12:19:57.051Z,2.50
2022-08-25T12:22:23.468Z,2.90
2022-08-25T12:24:56.100Z,2.70
2022-08-25T12:27:27.228Z,2.63
2022-08-25T12:30:07.231Z,2.80
2022-08-25T12:33:02.780Z,3.03
2022-08-25T12:35:29.990Z,2.57
2022-08-25T12:38:01.456Z,2.60
2022-08-25T12:40:59.346Z,2.80
2022-08-25T12:43:33.505Z,3.07
2022-08-25T12:46:38.284Z,2.80
2022-08-25T12:49:32.397Z,2.90
2022-08-25T12:52:05.522Z,2.83
2022-08-25T12:55:13.987Z,2.97
2022-08-25T12:57:46.302Z,2.60
2022-08-25T13:03:14.148Z,2.60
2022-08-25T13:05:56.042Z,2.90
2022-08-25T13:08:33.748Z,2.90
2022-08-25T13:11:04.773Z,2.93
2022-08-25T13:13:53.519Z,3.00
2022-08-25T13:16:29.884Z,2.97
2022-08-25T13:18:59.409Z,2.80
2022-08-25T13:21:42.178Z,2.80
2022-08-25T13:24:28.415Z,2.80
2022-08-25T13:26:57.434Z,2.80
2022-08-25T13:29:26.602Z,2.80
2022-08-25T13:32:12.643Z,2.83
2022-08-25T13:34:42.847Z,3.00
2022-08-25T13:37:30.204Z,2.73
2022-08-25T13:40:27.005Z,2.80
2022-08-25T13:42:58.534Z,2.93
2022-08-25T13:45:28.283Z,3.03
2022-08-25T13:47:55.963Z,2.83
2022-08-25T13:50:26.336Z,2.60
2022-08-25T13:52:59.250Z,3.03
2022-08-25T13:55:28.614Z,2.90
2022-08-25T13:57:57.905Z,2.97
2022-08-25T14:00:43.141Z,2.73
2022-08-25T14:03:37.344Z,2.97
2022-08-25T14:06:14.956Z,2.37
2022-08-25T14:08:47.428Z,2.87
2022-08-25T14:11:30.710Z,2.40
2022-08-25T14:14:03.003Z,2.60
2022-08-25T14:16:34.838Z,2.87
2022-08-25T14:19:03.489Z,2.80
2022-08-25T14:21:33.151Z,2.70
2022-08-25T14:24:01.182Z,2.97
2022-08-25T14:26:27.693Z,2.40
2022-08-25T14:28:54.286Z,3.00
2022-08-25T14:31:30.521Z,2.60
2022-08-25T14:34:08.170Z,2.80
2022-08-25T14:36:39.013Z,2.90
2022-08-25T14:39:08.673Z,2.83
2022-08-25T14:41:37.836Z,2.80
2022-08-25T14:44:05.246Z,2.90
2022-08-25T14:46:34.350Z,2.77
2022-08-25T14:49:03.715Z,3.00
2022-08-25T14:51:32.582Z,3.10
2022-08-25T14:54:05.069Z,3.00
2022-08-25T14:56:33.008Z,2.83
2022-08-25T14:59:00.829Z,2.97
2022-08-25T15:01:29.038Z,3.03
2022-08-25T15:04:02.369Z,3.30
2022-08-25T15:06:29.150Z,2.97
2022-08-25T15:09:08.294Z,2.90
2022-08-25T15:11:35.865Z,2.83
2022-08-25T15:14:05.484Z,3.17
2022-08-25T15:16:35.121Z,3.53
2022-08-25T15:19:06.819Z,3.17
2022-08-25T15:21:34.180Z,3.20
2022-08-25T15:24:02.285Z,3.10
2022-08-25T15:26:28.817Z,3.27
2022-08-25T15:28:55.368Z,3.27
2022-08-25T15:31:22.591Z,2.87
2022-08-25T15:33:49.437Z,2.90
2022-08-25T15:36:20.676Z,3.30
2022-08-25T15:38:47.470Z,3.20
2022-08-25T15:41:14.054Z,3.40
2022-08-25T15:43:41.199Z,3.53
2022-08-25T15:46:07.736Z,3.20
2022-08-25T15:48:35.553Z,3.10
2022-08-25T15:51:02.121Z,3.07
2022-08-25T15:53:31.070Z,3.33
2022-08-25T15:55:57.602Z,3.77
2022-08-25T15:58:27.511Z,3.27
2022-08-25T16:00:56.189Z,3.63
2022-08-25T16:03:23.069Z,3.37
2022-08-25T16:05:50.421Z,3.33
2022-08-25T16:08:19.721Z,3.20
2022-08-25T16:10:46.519Z,3.10
2022-08-25T16:13:13.096Z,3.43
2022-08-25T16:15:40.577Z,3.30
2022-08-25T16:18:07.094Z,3.43
2022-08-25T16:20:35.490Z,3.27
2022-08-25T16:23:03.931Z,3.60
2022-08-25T16:25:30.810Z,3.20
2022-08-25T16:27:57.309Z,3.50
2022-08-25T16:30:23.917Z,3.17
2022-08-25T16:32:50.438Z,3.60
2022-08-25T16:35:16.995Z,3.40
2022-08-25T16:37:44.221Z,3.20
2022-08-25T16:40:14.903Z,3.00
2022-08-25T16:42:41.859Z,3.83
2022-08-25T16:45:08.745Z,3.00
2022-08-25T16:47:38.039Z,3.10
2022-08-25T16:50:08.912Z,3.40
2022-08-25T16:52:55.924Z,3.67
2022-08-25T16:55:25.219Z,3.30
2022-08-25T16:57:54.188Z,3.33
2022-08-25T17:00:25.073Z,3.30
2022-08-25T17:02:58.362Z,3.20
2022-08-25T17:05:26.452Z,3.33
2022-08-25T17:08:12.526Z,3.60
2022-08-25T17:10:42.676Z,3.50
2022-08-25T17:13:10.232Z,3.30
2022-08-25T17:15:45.044Z,3.37
2022-08-25T17:18:12.833Z,3.10
2022-08-25T17:20:42.044Z,3.33
2022-08-25T17:23:11.977Z,3.10
2022-08-25T17:25:41.320Z,3.70
2022-08-25T17:28:09.687Z,3.30
2022-08-25T17:30:39.801Z,3.40
2022-08-25T17:33:06.622Z,3.20
2022-08-25T17:35:39.064Z,3.87
2022-08-25T17:38:06.280Z,3.73
2022-08-25T17:40:33.578Z,3.53
2022-08-25T17:43:01.658Z,3.43
2022-08-25T17:45:28.291Z,3.50
2022-08-25T17:47:55.007Z,3.47
2022-08-25T17:50:22.084Z,3.97
2022-08-25T17:52:49.247Z,3.43
2022-08-25T17:55:15.877Z,3.53
2022-08-25T17:57:43.010Z,3.63
2022-08-25T18:00:12.145Z,3.10
2022-08-25T18:02:39.932Z,3.53
2022-08-25T18:05:06.827Z,3.50
2022-08-25T18:07:33.382Z,3.53
2022-08-25T18:10:00.608Z,3.27
2022-08-25T18:12:27.834Z,3.63
2022-08-25T18:14:54.428Z,3.50
2022-08-25T18:17:21.959Z,3.80
2022-08-25T18:19:49.536Z,3.47
2022-08-25T18:22:16.728Z,3.50
2022-08-25T18:24:44.425Z,3.30
2022-08-25T18:27:13.101Z,3.53
2022-08-25T18:29:41.305Z,3.73
2022-08-25T18:32:08.495Z,4.07
2022-08-25T18:34:39.426Z,3.37
2022-08-25T18:37:25.554Z,3.50
2022-08-25T18:40:18.648Z,3.53
2022-08-25T18:42:45.448Z,4.07
2022-08-25T18:45:12.632Z,3.73
2022-08-25T18:47:39.259Z,3.90
2022-08-25T18:50:06.687Z,3.80
2022-08-25T18:52:33.382Z,4.07
2022-08-25T18:55:01.247Z,4.47
2022-08-25T18:57:28.489Z,4.00
2022-08-25T18:59:57.547Z,3.83
2022-08-25T19:02:25.283Z,3.87
2022-08-25T19:04:52.709Z,3.90
2022-08-25T19:07:19.740Z,4.07
2022-08-25T19:09:46.405Z,4.30
2022-08-25T19:12:22.711Z,4.30
2022-08-25T19:14:50.099Z,4.03
2022-08-25T19:17:17.138Z,4.40
2022-08-25T19:19:43.796Z,4.10
2022-08-25T19:22:31.839Z,3.73
2022-08-25T19:24:58.137Z,4.40
2022-08-25T19:27:25.010Z,3.53
2022-08-25T19:29:52.033Z,3.67
2022-08-25T19:32:18.915Z,4.27
2022-08-25T19:34:47.365Z,3.73
2022-08-25T19:37:18.160Z,5.00
2022-08-25T19:39:52.916Z,3.90
2022-08-25T19:42:37.110Z,4.53
2022-08-25T19:45:07.729Z,4.50
2022-08-25T19:47:34.416Z,4.87
2022-08-25T19:50:00.956Z,4.57
2022-08-25T19:52:27.801Z,4.67
2022-08-25T19:54:55.632Z,4.03
2022-08-25T19:57:28.403Z,4.43
2022-08-25T20:00:13.893Z,4.23
2022-08-25T20:02:40.576Z,4.37
2022-08-25T20:05:08.352Z,4.30
2022-08-25T20:07:35.588Z,4.40
2022-08-25T20:10:04.237Z,4.37
2022-08-25T20:12:30.943Z,4.60
2022-08-25T20:14:58.083Z,4.63
2022-08-25T20:17:26.242Z,4.40
2022-08-25T20:19:57.911Z,4.77
2022-08-25T20:22:30.918Z,4.37
2022-08-25T20:25:03.265Z,5.07
2022-08-25T20:27:37.429Z,4.87
2022-08-25T20:30:08.582Z,4.33
2022-08-25T20:32:35.723Z,4.73
2022-08-25T20:35:05.074Z,5.03
2022-08-25T20:37:41.996Z,4.67
2022-08-25T20:40:09.916Z,4.23
2022-08-25T20:42:38.149Z,4.57
2022-08-25T20:45:08.154Z,4.40
2022-08-25T20:47:36.216Z,4.73
2022-08-25T20:50:06.936Z,4.50
2022-08-25T20:52:34.646Z,4.10
2022-08-25T20:55:01.492Z,4.23
2022-08-25T20:57:28.112Z,4.37
2022-08-25T20:59:56.014Z,4.53
2022-08-25T21:02:24.403Z,5.03
2022-08-25T21:04:52.634Z,4.53
2022-08-25T21:07:19.857Z,4.37
2022-08-25T21:09:47.842Z,4.70
2022-08-25T21:12:15.666Z,4.63
2022-08-25T21:14:42.440Z,4.90
2022-08-25T21:17:12.191Z,4.93
2022-08-25T21:19:40.031Z,5.20
2022-08-25T21:22:08.285Z,4.97
2022-08-25T21:24:34.896Z,4.90
2022-08-25T21:27:03.256Z,4.70
2022-08-25T21:29:32.607Z,4.63
2022-08-25T21:31:59.229Z,5.10
2022-08-25T21:34:28.925Z,4.50
2022-08-25T21:36:57.966Z,4.50
2022-08-25T21:39:28.028Z,4.30
2022-08-25T21:41:55.651Z,5.50
2022-08-25T21:44:22.260Z,5.07
2022-08-25T21:46:54.646Z,4.97
2022-08-25T21:49:22.160Z,4.90
2022-08-25T21:51:59.245Z,5.20
2022-08-25T21:54:27.257Z,4.70
2022-08-25T21:56:59.618Z,5.10
2022-08-25T21:59:29.801Z,5.53
2022-08-25T22:01:58.200Z,4.90
2022-08-25T22:04:25.736Z,5.90
2022-08-25T22:06:52.325Z,5.40
2022-08-25T22:09:19.088Z,5.53
2022-08-25T22:11:46.127Z,5.70
2022-08-25T22:14:14.570Z,6.00
2022-08-25T22:16:42.989Z,5.03
2022-08-25T22:19:11.812Z,5.50
2022-08-25T22:21:39.424Z,5.17
2022-08-25T22:24:06.391Z,5.67
2022-08-25T22:26:34.266Z,5.60
2022-08-25T22:29:01.902Z,5.50
2022-08-25T22:31:28.856Z,5.00
2022-08-25T22:33:57.755Z,5.57
2022-08-25T22:36:30.170Z,6.23
2022-08-25T22:38:57.281Z,6.20
2022-08-25T22:41:25.939Z,5.60
2022-08-25T22:43:55.422Z,5.50
2022-08-25T22:46:22.487Z,5.60
2022-08-25T22:48:50.289Z,5.97
2022-08-25T22:51:20.888Z,5.73
2022-08-25T22:53:49.110Z,6.30
2022-08-25T22:56:18.156Z,6.00
2022-08-25T22:58:52.078Z,5.93
2022-08-25T23:01:20.165Z,6.57
2022-08-25T23:03:47.563Z,6.43
2022-08-25T23:06:24.457Z,5.80
2022-08-25T23:08:53.786Z,5.67
2022-08-25T23:11:21.523Z,5.70
2022-08-25T23:13:48.033Z,6.47
2022-08-25T23:16:15.361Z,6.00
2022-08-25T23:18:43.977Z,6.37
2022-08-25T23:21:37.922Z,6.17
2022-08-25T23:24:08.297Z,6.40
2022-08-25T23:26:34.842Z,5.87
2022-08-25T23:29:03.255Z,7.53
2022-08-25T23:31:44.199Z,7.20
2022-08-25T23:34:10.935Z,6.63
2022-08-25T23:36:38.091Z,6.10
2022-08-25T23:39:05.007Z,6.50
2022-08-25T23:41:34.224Z,6.60
2022-08-25T23:44:05.371Z,6.50
2022-08-25T23:46:35.005Z,6.83
2022-08-25T23:49:03.048Z,6.60
2022-08-25T23:51:34.010Z,6.67
2022-08-25T23:54:05.956Z,6.00
2022-08-25T23:56:34.155Z,6.87
2022-08-25T23:59:03.243Z,6.03
